Time;durP1;ratioP1;P1;durP2;ratioP2;P2;SDS_P1;SDS_P2;PMS_P1;PMS_P2;Temp;Humidity;BMP_temperature;BMP_pressure;BME280_temperature;BME280_humidity;BME280_pressure;Samples;Min_cycle;Max_cycle;Signal;HPM_P1;HPM_P2
2023/07/26 00:01:34;;;;;;;11.73;2.28;;;45.30;30.00;;;;;;5066939;28;20037;-65
2023/07/26 00:04:00;;;;;;;9.60;2.20;;;45.20;29.10;;;;;;5068951;28;20028;-62
2023/07/26 00:06:30;;;;;;;15.82;2.70;;;45.20;29.40;;;;;;5066448;28;20027;-65
2023/07/26 00:08:57;;;;;;;6.57;2.47;;;45.20;29.30;;;;;;5064709;28;20017;-65
2023/07/26 00:11:23;;;;;;;8.52;2.30;;;45.20;29.50;;;;;;5068784;28;20108;-64
2023/07/26 00:13:49;;;;;;;14.45;2.60;;;45.10;29.20;;;;;;5067357;28;20023;-63
2023/07/26 00:16:16;;;;;;;9.82;3.47;;;45.10;29.30;;;;;;5066004;28;20039;-63
2023/07/26 00:18:42;;;;;;;6.97;2.60;;;45.00;29.30;;;;;;5067636;28;20474;-63
2023/07/26 00:21:09;;;;;;;13.93;2.83;;;44.90;29.60;;;;;;5067586;28;20028;-64
2023/07/26 00:23:35;;;;;;;9.27;2.53;;;44.90;29.60;;;;;;5083179;28;20013;-62
2023/07/26 00:26:02;;;;;;;16.65;2.53;;;44.90;29.80;;;;;;5067215;28;20016;-63
2023/07/26 00:28:29;;;;;;;7.85;2.65;;;44.90;29.90;;;;;;5069112;28;20508;-65
2023/07/26 00:30:55;;;;;;;16.88;2.72;;;44.80;29.60;;;;;;5066877;28;20028;-63
2023/07/26 00:33:22;;;;;;;11.13;2.25;;;44.80;29.70;;;;;;5067618;28;20037;-63
2023/07/26 00:35:48;;;;;;;9.00;2.10;;;44.80;29.50;;;;;;5065057;28;20039;-62
2023/07/26 00:38:14;;;;;;;14.77;2.20;;;44.80;29.80;;;;;;5063744;28;20114;-63
2023/07/26 00:40:41;;;;;;;8.57;2.55;;;44.80;29.50;;;;;;5069078;28;20479;-63
2023/07/26 00:43:07;;;;;;;12.82;2.20;;;44.80;30.00;;;;;;5067814;28;20017;-62
2023/07/26 00:45:36;;;;;;;7.25;2.25;;;44.80;29.60;;;;;;5066522;28;20020;-65
2023/07/26 00:48:03;;;;;;;13.85;2.63;;;44.80;30.50;;;;;;5069700;28;20482;-66
2023/07/26 00:50:30;;;;;;;15.95;2.78;;;44.70;31.00;;;;;;5064238;28;20028;-62
2023/07/26 00:52:56;;;;;;;7.60;2.17;;;44.60;30.40;;;;;;5066553;28;20019;-63
2023/07/26 00:55:23;;;;;;;11.85;2.67;;;44.60;31.20;;;;;;5067318;28;20035;-62
2023/07/26 00:57:50;;;;;;;15.30;2.10;;;44.50;30.80;;;;;;5069852;28;20505;-63
2023/07/26 01:00:18;;;;;;;8.00;2.47;;;44.50;31.00;;;;;;5072267;28;20024;-63
2023/07/26 01:02:45;;;;;;;13.77;2.30;;;44.50;30.70;;;;;;5066259;28;20657;-63
2023/07/26 01:05:11;;;;;;;9.68;2.10;;;44.40;30.60;;;;;;5069988;28;20062;-63
2023/07/26 01:08:04;;;;;;;6.68;2.00;;;44.40;30.60;;;;;;5065989;28;20535;-64
2023/07/26 01:10:34;;;;;;;11.07;2.70;;;44.40;30.50;;;;;;5066180;28;20027;-64
2023/07/26 01:13:32;;;;;;;10.77;2.38;;;44.30;31.70;;;;;;5071172;28;20017;-65
2023/07/26 01:16:00;;;;;;;10.85;2.22;;;44.30;31.00;;;;;;5065915;28;20021;-64
2023/07/26 01:18:26;;;;;;;10.80;2.17;;;44.20;30.20;;;;;;5067511;28;20028;-63
2023/07/26 01:20:53;;;;;;;8.75;1.90;;;44.10;30.00;;;;;;5076433;28;20021;-63
2023/07/26 01:23:19;;;;;;;10.00;2.30;;;44.10;30.40;;;;;;5066683;28;20017;-63
2023/07/26 01:25:45;;;;;;;10.27;2.10;;;44.10;30.30;;;;;;5066307;28;20081;-63
2023/07/26 01:28:12;;;;;;;13.57;2.60;;;44.00;30.30;;;;;;5064126;28;20389;-66
2023/07/26 01:30:39;;;;;;;14.45;2.63;;;43.90;30.20;;;;;;5065112;28;20036;-66
2023/07/26 01:33:09;;;;;;;9.40;2.20;;;43.90;30.40;;;;;;5066550;28;20103;-64
2023/07/26 01:35:38;;;;;;;10.80;2.55;;;43.90;30.30;;;;;;5071826;28;20555;-63
2023/07/26 01:38:06;;;;;;;9.50;2.80;;;43.90;30.40;;;;;;5065728;28;20021;-64
2023/07/26 01:40:34;;;;;;;14.82;2.83;;;43.90;30.70;;;;;;5064871;28;20030;-63
2023/07/26 01:43:00;;;;;;;10.07;2.72;;;43.90;30.40;;;;;;5066695;28;20009;-64
2023/07/26 01:45:27;;;;;;;13.65;2.80;;;43.90;30.30;;;;;;5070337;28;20047;-64
2023/07/26 01:47:54;;;;;;;11.70;2.55;;;44.00;30.70;;;;;;5065718;28;20064;-65
2023/07/26 01:50:20;;;;;;;13.35;2.42;;;44.00;30.00;;;;;;5065661;28;20544;-65
2023/07/26 01:52:47;;;;;;;11.38;2.20;;;44.10;30.00;;;;;;5064860;28;20031;-64
2023/07/26 01:55:13;;;;;;;15.60;2.80;;;44.20;29.90;;;;;;5066125;28;20424;-63
2023/07/26 01:57:40;;;;;;;10.10;2.92;;;44.40;29.60;;;;;;5064707;28;20134;-65
2023/07/26 02:00:07;;;;;;;9.32;2.42;;;44.50;29.60;;;;;;5066483;28;20497;-64
2023/07/26 02:02:34;;;;;;;13.88;2.00;;;44.50;29.80;;;;;;5065262;28;20083;-62
2023/07/26 02:05:00;;;;;;;11.75;2.17;;;44.40;29.60;;;;;;5069131;28;20008;-65
2023/07/26 02:07:27;;;;;;;10.85;2.28;;;44.40;29.80;;;;;;5065995;28;20028;-62
2023/07/26 02:09:53;;;;;;;9.52;2.55;;;44.30;29.80;;;;;;5066267;28;20021;-62
2023/07/26 02:12:20;;;;;;;15.50;2.78;;;44.10;29.80;;;;;;5066889;28;20489;-65
2023/07/26 02:14:46;;;;;;;9.70;2.67;;;43.90;30.00;;;;;;5064712;28;20025;-63
2023/07/26 02:17:13;;;;;;;9.38;2.65;;;43.80;30.80;;;;;;5069027;28;20486;-65
2023/07/26 02:19:39;;;;;;;8.57;2.40;;;43.60;30.50;;;;;;5066136;28;20550;-64
2023/07/26 02:22:05;;;;;;;18.55;2.70;;;43.40;31.30;;;;;;5064361;28;20146;-63
2023/07/26 02:24:34;;;;;;;12.10;2.33;;;43.30;30.80;;;;;;5070766;28;20038;-64
2023/07/26 02:27:00;;;;;;;10.85;3.03;;;43.10;31.20;;;;;;5065854;28;20474;-64
2023/07/26 02:29:26;;;;;;;15.75;2.60;;;43.10;31.20;;;;;;5066862;28;20050;-64
2023/07/26 02:31:53;;;;;;;11.48;2.35;;;43.00;31.30;;;;;;5066343;28;20567;-64
2023/07/26 02:34:19;;;;;;;12.38;2.75;;;43.00;31.70;;;;;;5065715;28;20073;-67
2023/07/26 02:36:46;;;;;;;22.60;3.17;;;42.90;31.60;;;;;;5070242;28;20135;-67
2023/07/26 02:39:12;;;;;;;13.50;3.05;;;42.90;32.90;;;;;;5069244;28;20039;-65
2023/07/26 02:41:39;;;;;;;9.63;2.72;;;42.80;32.00;;;;;;5069020;28;20044;-66
2023/07/26 02:44:06;;;;;;;16.63;2.55;;;42.70;32.50;;;;;;5075496;28;20050;-66
2023/07/26 02:46:32;;;;;;;20.98;2.83;;;42.60;32.00;;;;;;5069029;28;20469;-67
2023/07/26 02:48:58;;;;;;;16.42;2.70;;;42.60;32.30;;;;;;5068860;28;20125;-66
2023/07/26 02:51:25;;;;;;;14.40;2.53;;;42.60;32.30;;;;;;5070842;28;20025;-67
2023/07/26 02:53:51;;;;;;;11.30;2.53;;;42.60;32.30;;;;;;5072590;28;20412;-63
2023/07/26 02:56:17;;;;;;;17.38;2.60;;;42.50;32.50;;;;;;5069798;28;20069;-67
2023/07/26 02:58:44;;;;;;;10.77;2.60;;;42.40;32.40;;;;;;5069493;28;20129;-66
2023/07/26 03:01:10;;;;;;;15.45;2.90;;;42.40;32.70;;;;;;5067801;28;20042;-67
2023/07/26 03:03:37;;;;;;;14.45;3.17;;;42.30;33.10;;;;;;5072572;28;20069;-66
2023/07/26 03:06:03;;;;;;;16.50;6.72;;;42.20;32.80;;;;;;5070037;28;20047;-66
2023/07/26 03:08:30;;;;;;;17.75;7.35;;;42.20;32.90;;;;;;5069768;28;20060;-67
2023/07/26 03:10:56;;;;;;;16.30;6.03;;;42.10;33.30;;;;;;5067895;28;20045;-65
2023/07/26 03:13:22;;;;;;;16.58;3.72;;;42.10;33.80;;;;;;5068679;28;20513;-65
2023/07/26 03:15:49;;;;;;;26.40;4.05;;;42.00;33.60;;;;;;5068766;28;20046;-66
2023/07/26 03:18:15;;;;;;;19.98;3.60;;;42.00;33.40;;;;;;5068401;28;20083;-67
2023/07/26 03:20:46;;;;;;;16.90;3.70;;;41.90;33.50;;;;;;5069581;28;20127;-64
2023/07/26 03:23:16;;;;;;;27.50;3.55;;;41.90;34.10;;;;;;5067770;28;20041;-66
2023/07/26 03:25:43;;;;;;;21.55;4.53;;;41.90;33.90;;;;;;5068170;28;20070;-67
2023/07/26 03:28:09;;;;;;;22.40;4.50;;;41.80;33.90;;;;;;5069279;28;20055;-66
2023/07/26 03:30:35;;;;;;;14.90;3.53;;;41.80;34.10;;;;;;5067622;28;20047;-66
2023/07/26 03:33:02;;;;;;;23.08;4.38;;;41.80;34.50;;;;;;5068577;28;20051;-66
2023/07/26 03:35:28;;;;;;;17.05;4.20;;;41.70;35.10;;;;;;5068402;28;20153;-68
2023/07/26 03:37:55;;;;;;;20.23;4.57;;;41.70;35.20;;;;;;5067935;28;20069;-66
2023/07/26 03:40:21;;;;;;;17.05;4.25;;;41.70;35.20;;;;;;5068711;28;20047;-64
2023/07/26 03:42:48;;;;;;;21.67;4.10;;;41.60;35.60;;;;;;5068714;28;20040;-65
2023/07/26 03:45:14;;;;;;;21.05;4.15;;;41.50;35.50;;;;;;5066893;28;20411;-66
2023/07/26 03:47:40;;;;;;;22.00;4.53;;;41.40;35.50;;;;;;5067995;28;20048;-66
2023/07/26 03:50:07;;;;;;;31.73;4.30;;;41.40;35.00;;;;;;5067844;28;20541;-66
2023/07/26 03:52:33;;;;;;;19.70;3.80;;;41.30;34.80;;;;;;5067678;28;20577;-66
2023/07/26 03:55:00;;;;;;;16.23;3.60;;;41.30;35.00;;;;;;5072558;28;20144;-67
2023/07/26 03:57:26;;;;;;;29.48;4.80;;;41.20;36.00;;;;;;5071531;28;20168;-66
2023/07/26 03:59:53;;;;;;;25.23;4.00;;;41.20;35.60;;;;;;5067850;28;20058;-65
2023/07/26 04:02:19;;;;;;;13.18;3.28;;;41.10;35.90;;;;;;5068555;28;20065;-67
2023/07/26 04:04:45;;;;;;;32.08;3.90;;;41.00;34.70;;;;;;5071820;28;20124;-64
2023/07/26 04:07:12;;;;;;;26.27;3.78;;;41.00;35.30;;;;;;5074852;28;20107;-66
2023/07/26 04:09:38;;;;;;;21.70;3.05;;;40.90;35.30;;;;;;5068204;28;20059;-65
2023/07/26 04:12:06;;;;;;;16.23;2.92;;;40.90;34.60;;;;;;5073969;28;20076;-65
2023/07/26 04:14:32;;;;;;;22.92;3.10;;;40.90;34.40;;;;;;5067952;28;20414;-65
2023/07/26 04:16:59;;;;;;;21.77;2.97;;;40.80;34.30;;;;;;5067377;28;20060;-64
2023/07/26 04:19:25;;;;;;;16.70;3.20;;;40.80;34.10;;;;;;5067253;28;20100;-64
2023/07/26 04:21:52;;;;;;;18.73;3.13;;;40.80;34.10;;;;;;5070753;28;20114;-66
2023/07/26 04:24:18;;;;;;;12.15;2.65;;;40.80;34.10;;;;;;5069835;28;20078;-66
2023/07/26 04:26:44;;;;;;;24.38;3.00;;;40.80;34.10;;;;;;5067383;28;20404;-64
2023/07/26 04:29:11;;;;;;;13.60;3.00;;;40.80;35.10;;;;;;5070797;28;20052;-64
2023/07/26 04:31:37;;;;;;;17.20;3.85;;;40.70;35.20;;;;;;5067436;28;20119;-64
2023/07/26 04:34:04;;;;;;;14.90;3.83;;;40.60;35.40;;;;;;5067737;28;20055;-65
2023/07/26 04:36:30;;;;;;;21.13;4.32;;;40.60;35.30;;;;;;5074821;28;20560;-63
2023/07/26 04:38:57;;;;;;;13.73;3.70;;;40.50;34.80;;;;;;5070811;28;20552;-64
2023/07/26 04:41:23;;;;;;;21.25;3.70;;;40.50;35.30;;;;;;5067203;28;20082;-64
2023/07/26 04:43:49;;;;;;;19.00;4.00;;;40.40;35.30;;;;;;5066432;28;20126;-66
2023/07/26 04:46:17;;;;;;;12.20;3.70;;;40.30;34.90;;;;;;5067033;28;20082;-65
2023/07/26 04:48:43;;;;;;;13.77;3.20;;;40.30;35.00;;;;;;5066776;28;20058;-66
2023/07/26 04:51:11;;;;;;;13.57;3.65;;;40.20;35.00;;;;;;5069391;28;20055;-65
2023/07/26 04:53:38;;;;;;;15.68;3.85;;;40.20;34.50;;;;;;5070543;28;20053;-64
2023/07/26 04:56:04;;;;;;;14.00;3.58;;;40.10;33.80;;;;;;5068701;28;20055;-64
2023/07/26 04:58:31;;;;;;;10.32;3.22;;;40.10;33.30;;;;;;5066791;28;20078;-62
2023/07/26 05:00:59;;;;;;;11.65;3.10;;;40.00;33.10;;;;;;5070885;28;20166;-64
2023/07/26 05:03:25;;;;;;;12.95;3.30;;;40.00;32.60;;;;;;5063485;28;20761;-64
2023/07/26 05:05:52;;;;;;;12.05;3.08;;;40.00;32.00;;;;;;5069593;28;20059;-65
2023/07/26 05:08:21;;;;;;;9.45;3.22;;;40.00;32.50;;;;;;5069017;28;20111;-69
2023/07/26 05:10:51;;;;;;;9.60;3.17;;;39.90;31.70;;;;;;5066888;28;20061;-65
2023/07/26 05:13:19;;;;;;;8.25;3.08;;;39.90;32.40;;;;;;5074987;28;20089;-66
2023/07/26 05:15:46;;;;;;;8.63;2.92;;;39.90;31.80;;;;;;5066061;28;20540;-64
2023/07/26 05:18:14;;;;;;;7.45;3.20;;;39.90;30.90;;;;;;5066771;28;20076;-65
2023/07/26 05:20:42;;;;;;;8.38;3.42;;;39.90;31.30;;;;;;5070098;28;20087;-67
2023/07/26 05:23:09;;;;;;;11.63;3.13;;;39.90;30.80;;;;;;5068624;28;20062;-66
2023/07/26 05:25:37;;;;;;;13.68;3.10;;;39.80;31.00;;;;;;5065457;28;20738;-63
2023/07/26 05:28:04;;;;;;;10.55;3.28;;;39.90;31.60;;;;;;5066201;28;20186;-65
2023/07/26 05:30:30;;;;;;;13.02;3.33;;;39.90;30.60;;;;;;5065065;28;20071;-71
2023/07/26 05:32:57;;;;;;;11.23;2.63;;;39.80;30.80;;;;;;5072811;28;20604;-64
2023/07/26 05:35:23;;;;;;;12.77;3.00;;;39.80;30.90;;;;;;5068660;28;20426;-64
2023/07/26 05:37:50;;;;;;;9.05;3.17;;;39.70;31.10;;;;;;5065614;28;20078;-65
2023/07/26 05:40:16;;;;;;;6.93;2.60;;;39.70;31.10;;;;;;5064829;28;20065;-62
2023/07/26 05:42:43;;;;;;;10.43;2.50;;;39.70;30.50;;;;;;5069274;28;20056;-66
2023/07/26 05:45:10;;;;;;;11.15;3.13;;;39.60;30.80;;;;;;5067018;28;20058;-65
2023/07/26 05:47:38;;;;;;;7.47;2.83;;;39.60;30.60;;;;;;5065969;28;20075;-64
2023/07/26 05:50:07;;;;;;;11.98;3.17;;;39.50;30.40;;;;;;5066175;28;20057;-65
2023/07/26 05:52:34;;;;;;;12.05;3.00;;;39.50;30.40;;;;;;5069860;28;20061;-64
2023/07/26 05:55:00;;;;;;;9.27;3.17;;;39.50;30.50;;;;;;5065864;28;20606;-65
2023/07/26 05:57:27;;;;;;;12.25;2.90;;;39.40;30.20;;;;;;5071612;28;20101;-63
2023/07/26 05:59:53;;;;;;;15.00;2.83;;;39.40;30.00;;;;;;5065544;28;20126;-64
2023/07/26 06:02:20;;;;;;;13.65;3.25;;;39.40;30.00;;;;;;5066573;28;20081;-63
2023/07/26 06:04:49;;;;;;;10.68;3.42;;;39.40;30.40;;;;;;5070365;28;20099;-63
2023/07/26 06:07:17;;;;;;;7.60;2.88;;;39.30;30.30;;;;;;5065524;28;20204;-64
2023/07/26 06:09:44;;;;;;;12.05;2.80;;;39.30;30.50;;;;;;5070214;28;20069;-65
2023/07/26 06:12:10;;;;;;;11.75;2.70;;;39.30;30.60;;;;;;5066079;28;20539;-64
2023/07/26 06:14:37;;;;;;;11.82;2.72;;;39.30;30.20;;;;;;5069016;28;20136;-63
2023/07/26 06:17:04;;;;;;;13.45;2.78;;;39.20;30.60;;;;;;5066049;28;20152;-63
2023/07/26 06:19:30;;;;;;;7.43;2.92;;;39.20;30.70;;;;;;5065314;28;21970;-63
2023/07/26 06:21:57;;;;;;;9.75;2.80;;;39.10;30.20;;;;;;5066049;28;20459;-65
2023/07/26 06:24:25;;;;;;;11.02;2.85;;;39.10;30.40;;;;;;5065199;28;20065;-64
2023/07/26 06:26:52;;;;;;;13.15;2.80;;;39.10;30.40;;;;;;5065342;28;20120;-64
2023/07/26 06:29:19;;;;;;;8.07;2.60;;;39.00;30.00;;;;;;5064902;28;20064;-64
2023/07/26 06:31:46;;;;;;;6.80;2.97;;;39.00;30.00;;;;;;5065975;28;20059;-62
2023/07/26 06:34:12;;;;;;;13.77;2.72;;;39.00;29.50;;;;;;5066668;28;20059;-63
2023/07/26 06:36:38;;;;;;;7.25;2.22;;;39.00;29.60;;;;;;5069236;28;20182;-65
2023/07/26 06:39:05;;;;;;;6.88;2.92;;;39.00;29.80;;;;;;5065461;28;20754;-64
2023/07/26 06:41:32;;;;;;;8.60;2.45;;;38.90;29.80;;;;;;5070326;28;20059;-63
2023/07/26 06:43:58;;;;;;;12.88;2.80;;;39.00;29.90;;;;;;5064467;28;20391;-65
2023/07/26 06:46:25;;;;;;;6.30;2.35;;;38.90;30.00;;;;;;5067799;28;20060;-64
2023/07/26 06:48:51;;;;;;;9.43;2.40;;;38.90;29.90;;;;;;5065153;28;20176;-62
2023/07/26 06:51:17;;;;;;;6.97;2.50;;;38.80;29.90;;;;;;5070298;28;20629;-62
2023/07/26 06:53:44;;;;;;;3.78;2.10;;;38.80;30.00;;;;;;5065669;28;20073;-64
2023/07/26 06:56:10;;;;;;;5.78;2.80;;;38.80;29.80;;;;;;5065911;28;20134;-63
2023/07/26 06:58:37;;;;;;;9.57;2.90;;;38.80;29.80;;;;;;5065073;28;20456;-64
2023/07/26 07:01:03;;;;;;;8.20;2.47;;;38.70;29.80;;;;;;5068414;28;20056;-63
2023/07/26 07:03:30;;;;;;;12.50;2.70;;;38.70;29.60;;;;;;5065603;28;20472;-63
2023/07/26 07:05:56;;;;;;;8.60;2.67;;;38.70;29.40;;;;;;5068111;28;20070;-64
2023/07/26 07:08:24;;;;;;;12.50;3.08;;;38.70;29.60;;;;;;5065335;28;20063;-63
2023/07/26 07:10:51;;;;;;;7.93;2.60;;;38.70;29.50;;;;;;5065301;28;20790;-63
2023/07/26 07:13:17;;;;;;;9.80;2.83;;;38.60;29.50;;;;;;5065008;28;20085;-63
2023/07/26 07:15:43;;;;;;;8.23;2.28;;;38.60;29.40;;;;;;5065314;28;20056;-63
2023/07/26 07:18:10;;;;;;;9.27;2.95;;;38.60;29.60;;;;;;5066390;28;20076;-64
2023/07/26 07:20:36;;;;;;;7.70;2.30;;;38.50;29.20;;;;;;5065587;28;20062;-62
2023/07/26 07:23:04;;;;;;;8.40;2.35;;;38.50;29.60;;;;;;5065214;28;20054;-63
2023/07/26 07:25:30;;;;;;;9.65;2.42;;;38.50;29.70;;;;;;5067811;28;20125;-63
2023/07/26 07:27:57;;;;;;;6.05;2.58;;;38.50;29.60;;;;;;5068933;28;20064;-62
2023/07/26 07:30:23;;;;;;;12.27;2.30;;;38.40;29.40;;;;;;5069490;28;20067;-63
2023/07/26 07:32:49;;;;;;;5.32;2.28;;;38.50;30.00;;;;;;5076068;28;20169;-64
2023/07/26 07:35:16;;;;;;;7.90;2.95;;;38.50;30.00;;;;;;5067263;28;20087;-63
2023/07/26 07:37:42;;;;;;;8.95;2.83;;;38.40;30.10;;;;;;5073501;28;20478;-64
2023/07/26 07:40:09;;;;;;;11.48;2.50;;;38.40;30.20;;;;;;5069417;28;20139;-64
2023/07/26 07:42:36;;;;;;;10.32;2.88;;;38.40;30.10;;;;;;5069725;28;20056;-63
2023/07/26 07:45:03;;;;;;;6.53;2.53;;;38.30;30.20;;;;;;5071631;28;20100;-63
2023/07/26 07:47:30;;;;;;;7.97;2.72;;;38.30;30.00;;;;;;5068872;28;20118;-64
2023/07/26 07:49:56;;;;;;;8.23;2.53;;;38.30;29.90;;;;;;5070092;28;20535;-64
2023/07/26 07:52:22;;;;;;;11.02;2.60;;;38.20;30.30;;;;;;5068450;28;20081;-61
2023/07/26 07:54:49;;;;;;;4.30;2.05;;;38.20;29.50;;;;;;5067987;28;20057;-64
2023/07/26 07:57:17;;;;;;;9.07;2.70;;;38.20;29.90;;;;;;5067866;28;20651;-63
2023/07/26 07:59:44;;;;;;;8.85;2.38;;;38.10;29.80;;;;;;5068910;28;20127;-63
2023/07/26 08:02:10;;;;;;;7.20;2.75;;;38.10;29.80;;;;;;5068667;28;20072;-65
2023/07/26 08:04:38;;;;;;;10.40;2.85;;;38.10;29.50;;;;;;5071856;28;20086;-64
2023/07/26 08:07:05;;;;;;;8.45;2.35;;;38.10;29.40;;;;;;5068200;28;20073;-64
2023/07/26 08:09:31;;;;;;;6.25;2.17;;;38.10;29.40;;;;;;5068581;28;20101;-63
2023/07/26 08:11:58;;;;;;;5.68;1.90;;;38.10;29.60;;;;;;5068983;28;20076;-64
2023/07/26 08:14:25;;;;;;;6.32;2.30;;;38.00;29.70;;;;;;5069625;28;20100;-63
2023/07/26 08:16:51;;;;;;;6.53;2.20;;;38.00;29.90;;;;;;5070230;28;20083;-63
2023/07/26 08:19:18;;;;;;;10.27;2.72;;;38.00;29.90;;;;;;5070867;28;20057;-62
2023/07/26 08:21:44;;;;;;;6.88;2.50;;;37.90;29.80;;;;;;5068734;28;20071;-63
2023/07/26 08:24:11;;;;;;;5.40;2.30;;;37.90;30.20;;;;;;5067862;28;20202;-64
2023/07/26 08:26:37;;;;;;;4.93;2.38;;;37.90;30.30;;;;;;5067174;28;20068;-62
2023/07/26 08:29:04;;;;;;;6.15;2.42;;;37.90;30.10;;;;;;5068296;28;20146;-62
2023/07/26 08:31:30;;;;;;;7.53;2.40;;;37.80;30.10;;;;;;5070053;28;20088;-63
2023/07/26 08:33:57;;;;;;;6.05;2.33;;;37.80;31.10;;;;;;5068915;28;20060;-63
2023/07/26 08:36:24;;;;;;;9.85;2.70;;;37.80;31.80;;;;;;5066638;28;20074;-62
2023/07/26 08:38:50;;;;;;;8.80;2.38;;;37.70;31.90;;;;;;5067165;28;20077;-63
2023/07/26 08:41:16;;;;;;;7.75;2.28;;;37.70;31.10;;;;;;5067450;28;20482;-61
2023/07/26 08:43:44;;;;;;;8.43;2.40;;;37.70;30.90;;;;;;5067008;28;20072;-64
2023/07/26 08:46:12;;;;;;;5.47;2.15;;;37.70;30.40;;;;;;5071271;28;20057;-62
2023/07/26 08:48:39;;;;;;;5.80;2.10;;;37.70;31.40;;;;;;5067184;28;20079;-63
2023/07/26 08:51:06;;;;;;;4.28;2.00;;;37.60;32.00;;;;;;5068095;28;20601;-61
2023/07/26 08:53:35;;;;;;;7.68;2.15;;;37.60;32.60;;;;;;5066225;28;20071;-62
2023/07/26 08:56:02;;;;;;;5.70;2.45;;;37.50;32.90;;;;;;5067227;28;20066;-64
2023/07/26 08:58:29;;;;;;;5.28;2.80;;;37.40;32.50;;;;;;5067377;28;20100;-64
2023/07/26 09:00:58;;;;;;;4.93;2.33;;;37.40;32.40;;;;;;5068119;28;20091;-63
2023/07/26 09:03:24;;;;;;;7.68;2.17;;;37.30;32.60;;;;;;5069242;28;20121;-63
2023/07/26 09:06:06;;;;;;;7.38;2.42;;;37.30;33.40;;;;;;5068309;28;21075;-63
2023/07/26 09:08:33;;;;;;;7.82;2.35;;;37.20;33.00;;;;;;5066448;28;20152;-63
2023/07/26 09:11:01;;;;;;;11.45;2.90;;;37.10;33.50;;;;;;5066332;28;20420;-64
2023/07/26 09:13:27;;;;;;;7.50;2.30;;;37.00;33.10;;;;;;5066993;28;20071;-64
2023/07/26 09:15:54;;;;;;;11.70;3.10;;;37.00;33.10;;;;;;5066596;28;20073;-63
2023/07/26 09:18:20;;;;;;;9.43;2.22;;;36.90;33.20;;;;;;5066484;28;20413;-61
2023/07/26 09:20:47;;;;;;;9.27;2.40;;;36.90;34.00;;;;;;5080230;28;20568;-63
2023/07/26 09:23:16;;;;;;;12.57;2.63;;;36.80;34.20;;;;;;5067573;28;20060;-64
2023/07/26 09:25:44;;;;;;;7.18;2.50;;;36.70;34.50;;;;;;5066735;28;20078;-63
2023/07/26 09:28:14;;;;;;;9.98;2.50;;;36.70;34.90;;;;;;5066512;28;20154;-63
2023/07/26 09:30:50;;;;;;;8.75;2.75;;;36.60;34.80;;;;;;5067543;28;20156;-64
2023/07/26 09:33:17;;;;;;;5.63;2.38;;;36.60;34.50;;;;;;5066535;28;20146;-63
2023/07/26 09:35:48;;;;;;;11.27;2.72;;;36.50;34.90;;;;;;5066598;28;20477;-64
2023/07/26 09:38:16;;;;;;;9.40;2.72;;;36.40;34.80;;;;;;5066194;28;20094;-64
2023/07/26 09:40:43;;;;;;;7.15;2.75;;;36.40;34.90;;;;;;5066053;28;20161;-62
2023/07/26 09:43:10;;;;;;;7.00;2.78;;;36.30;34.90;;;;;;5065946;28;20091;-62
2023/07/26 09:45:38;;;;;;;13.68;2.80;;;36.30;34.00;;;;;;5066377;28;20069;-63
2023/07/26 09:48:13;;;;;;;7.22;2.60;;;36.30;34.30;;;;;;5068929;28;20069;-62
2023/07/26 09:50:41;;;;;;;7.90;2.67;;;36.20;34.20;;;;;;5068206;28;20074;-63
2023/07/26 09:53:08;;;;;;;8.63;2.55;;;36.30;34.10;;;;;;5065824;28;20123;-62
2023/07/26 09:55:34;;;;;;;6.25;2.60;;;36.20;34.10;;;;;;5065121;28;20171;-62
2023/07/26 09:58:01;;;;;;;11.98;2.50;;;36.20;34.50;;;;;;5064149;28;20096;-64
2023/07/26 10:00:29;;;;;;;8.70;2.30;;;36.20;34.30;;;;;;5064377;28;20083;-62
2023/07/26 10:03:00;;;;;;;10.02;3.10;;;36.20;34.40;;;;;;5071292;28;20086;-63
2023/07/26 10:05:30;;;;;;;10.15;2.63;;;36.10;34.30;;;;;;5068949;28;20834;-65
2023/07/26 10:07:56;;;;;;;4.32;2.40;;;36.10;34.30;;;;;;5068584;28;20079;-62
2023/07/26 10:10:24;;;;;;;7.90;2.70;;;36.10;33.80;;;;;;5063985;28;20168;-62
2023/07/26 10:12:53;;;;;;;5.40;2.50;;;36.10;33.50;;;;;;5066198;28;20086;-62
2023/07/26 10:15:23;;;;;;;8.52;2.60;;;36.10;33.10;;;;;;5065436;28;20080;-63
2023/07/26 10:17:51;;;;;;;9.38;2.75;;;36.10;33.20;;;;;;5073945;28;20564;-63
2023/07/26 10:20:18;;;;;;;6.55;2.85;;;36.10;32.40;;;;;;5066071;28;20123;-63
2023/07/26 10:22:47;;;;;;;5.65;2.50;;;36.10;32.10;;;;;;5065307;28;20659;-65
2023/07/26 10:25:13;;;;;;;8.00;2.67;;;36.20;32.20;;;;;;5065641;28;20078;-64
2023/07/26 10:27:42;;;;;;;4.75;2.20;;;36.20;31.40;;;;;;5067333;28;20074;-64
2023/07/26 10:30:09;;;;;;;8.63;2.88;;;36.20;31.30;;;;;;5063664;28;20542;-63
2023/07/26 10:32:41;;;;;;;3.95;2.28;;;36.20;31.60;;;;;;5066864;28;20095;-63
2023/07/26 10:35:10;;;;;;;5.00;2.65;;;36.20;31.30;;;;;;5066468;28;20073;-64
2023/07/26 10:37:37;;;;;;;3.17;2.30;;;36.20;31.70;;;;;;5066306;28;20113;-61
2023/07/26 10:40:33;;;;;;;9.25;2.30;;;36.20;32.00;;;;;;5066370;28;20082;-62
2023/07/26 10:43:15;;;;;;;7.00;2.60;;;36.20;31.20;;;;;;5062149;28;20137;-62
2023/07/26 10:45:45;;;;;;;4.75;2.30;;;36.20;30.60;;;;;;5066070;28;20093;-64
2023/07/26 10:48:30;;;;;;;17.65;2.65;;;36.20;30.60;;;;;;5065607;28;20629;-63
2023/07/26 10:50:57;;;;;;;11.38;2.40;;;36.30;30.00;;;;;;5065474;28;20113;-63
2023/07/26 10:53:36;;;;;;;10.48;2.30;;;36.30;30.00;;;;;;5066161;28;20183;-63
2023/07/26 10:56:18;;;;;;;9.93;2.28;;;36.30;30.30;;;;;;5065325;28;20443;-62
2023/07/26 10:58:54;;;;;;;13.15;2.95;;;36.30;30.10;;;;;;5067999;28;20163;-61
2023/07/26 11:01:30;;;;;;;;;;;36.30;29.80;;;;;;5069301;28;20890;-63
2023/07/26 11:04:00;;;;;;;6.13;2.67;;;36.30;29.70;;;;;;5073160;28;20015;-63
2023/07/26 11:06:48;;;;;;;4.75;2.28;;;36.40;29.70;;;;;;5069266;28;20221;-62
2023/07/26 11:09:26;;;;;;;10.25;2.75;;;36.30;29.80;;;;;;5068276;28;20090;-63
2023/07/26 11:11:58;;;;;;;8.63;2.53;;;36.30;29.80;;;;;;5067725;28;20075;-62
2023/07/26 11:14:30;;;;;;;7.18;2.30;;;36.30;29.90;;;;;;5068775;28;20413;-62
2023/07/26 11:16:59;;;;;;;9.32;2.60;;;36.20;30.10;;;;;;5068424;28;20084;-63
2023/07/26 11:19:27;;;;;;;8.63;2.20;;;36.20;30.30;;;;;;5068483;28;20218;-63
2023/07/26 11:22:04;;;;;;;6.70;2.55;;;36.10;30.30;;;;;;5068601;28;20088;-63
2023/07/26 11:24:30;;;;;;;6.13;2.80;;;36.10;30.50;;;;;;5067170;28;20134;-61
2023/07/26 11:27:05;;;;;;;10.02;2.15;;;36.00;31.00;;;;;;5068657;28;20085;-63
2023/07/26 11:29:32;;;;;;;12.25;2.88;;;35.90;30.60;;;;;;5069009;28;20079;-62
2023/07/26 11:31:59;;;;;;;9.60;2.78;;;35.90;30.80;;;;;;5068610;28;20112;-63
2023/07/26 11:34:25;;;;;;;15.25;2.85;;;35.80;30.90;;;;;;5068622;28;20162;-63
2023/07/26 11:36:52;;;;;;;13.77;3.28;;;35.80;31.00;;;;;;5067955;28;20073;-62
2023/07/26 11:39:19;;;;;;;10.65;3.50;;;35.70;31.10;;;;;;5068574;28;20071;-62
2023/07/26 11:41:46;;;;;;;26.73;6.05;;;35.70;31.60;;;;;;5068367;28;20075;-62
2023/07/26 11:44:13;;;;;;;34.17;7.57;;;35.60;32.30;;;;;;5070906;28;20089;-61
2023/07/26 11:46:44;;;;;;;38.03;8.65;;;35.50;33.60;;;;;;5067798;28;20165;-62
2023/07/26 11:49:22;;;;;;;41.72;10.40;;;35.40;36.40;;;;;;5069590;28;20480;-63
2023/07/26 11:51:50;;;;;;;39.72;10.38;;;35.30;39.60;;;;;;5066662;28;20451;-63
2023/07/26 11:54:17;;;;;;;33.50;9.90;;;35.20;41.00;;;;;;5067033;28;20152;-64
2023/07/26 11:56:44;;;;;;;32.50;10.00;;;35.10;41.80;;;;;;5067347;28;20080;-63
2023/07/26 11:59:12;;;;;;;47.58;13.07;;;35.00;42.30;;;;;;5069240;28;20569;-63
2023/07/26 12:01:39;;;;;;;36.80;12.25;;;34.90;43.40;;;;;;5068383;28;20073;-63
2023/07/26 12:04:12;;;;;;;47.22;16.80;;;34.90;43.60;;;;;;5072737;28;20126;-63
2023/07/26 12:06:44;;;;;;;48.17;19.60;;;34.70;44.20;;;;;;5067670;28;20072;-63
2023/07/26 12:09:11;;;;;;;58.47;21.83;;;34.70;45.40;;;;;;5067747;28;20141;-62
2023/07/26 12:11:47;;;;;;;69.05;24.63;;;34.60;46.30;;;;;;5067877;28;20482;-62
2023/07/26 12:14:19;;;;;;;65.00;24.20;;;34.50;47.00;;;;;;5066962;28;20076;-64
2023/07/26 12:16:53;;;;;;;65.78;23.77;;;34.40;47.40;;;;;;5067689;28;20533;-61
2023/07/26 12:19:24;;;;;;;57.25;22.58;;;34.30;47.70;;;;;;5066353;28;20083;-61
2023/07/26 12:21:51;;;;;;;57.83;23.73;;;34.10;48.10;;;;;;5067410;28;20151;-62
2023/07/26 12:24:18;;;;;;;64.55;21.80;;;34.10;49.50;;;;;;5067654;28;20079;-62
2023/07/26 12:26:47;;;;;;;51.17;20.85;;;34.00;49.30;;;;;;5070049;28;20080;-63
2023/07/26 12:29:14;;;;;;;44.33;19.00;;;34.00;50.60;;;;;;5068325;28;20159;-63
2023/07/26 12:31:41;;;;;;;47.78;16.58;;;34.00;51.50;;;;;;5067475;28;20089;-63
2023/07/26 12:34:09;;;;;;;54.13;15.43;;;33.90;52.10;;;;;;5069180;28;20095;-62
2023/07/26 12:36:41;;;;;;;42.33;13.00;;;33.90;52.70;;;;;;5067646;28;20083;-62
2023/07/26 12:39:09;;;;;;;40.78;10.93;;;33.90;53.30;;;;;;5067265;28;20091;-63
2023/07/26 12:41:36;;;;;;;34.42;10.75;;;33.90;53.70;;;;;;5066990;28;20079;-61
2023/07/26 12:44:07;;;;;;;46.28;12.85;;;33.70;54.20;;;;;;5067393;28;20072;-63